sensor_id;sensor_type;location;lat;lon;timestamp;P1;durP1;ratioP1;P2;durP2;ratioP2
53267;SDS011;39156;51.176;6.738;2023-09-19T00:01:32;38.85;;;36.50;;
53267;SDS011;39156;51.176;6.738;2023-09-19T00:03:58;39.40;;;36.95;;
53267;SDS011;39156;51.176;6.738;2023-09-19T00:06:27;42.13;;;39.47;;
53267;SDS011;39156;51.176;6.738;2023-09-19T00:08:56;37.65;;;35.55;;
53267;SDS011;39156;51.176;6.738;2023-09-19T00:11:24;38.67;;;36.20;;
53267;SDS011;39156;51.176;6.738;2023-09-19T00:13:51;38.15;;;35.95;;
53267;SDS011;39156;51.176;6.738;2023-09-19T00:16:17;37.57;;;35.20;;
53267;SDS011;39156;51.176;6.738;2023-09-19T00:18:44;38.13;;;35.70;;
53267;SDS011;39156;51.176;6.738;2023-09-19T00:21:10;40.72;;;38.30;;
53267;SDS011;39156;51.176;6.738;2023-09-19T00:23:36;38.47;;;35.87;;
53267;SDS011;39156;51.176;6.738;2023-09-19T00:26:02;40.35;;;37.95;;
53267;SDS011;39156;51.176;6.738;2023-09-19T00:28:29;37.47;;;35.05;;
53267;SDS011;39156;51.176;6.738;2023-09-19T00:30:55;38.20;;;35.53;;
53267;SDS011;39156;51.176;6.738;2023-09-19T00:33:27;40.60;;;37.40;;
53267;SDS011;39156;51.176;6.738;2023-09-19T00:35:54;39.22;;;36.60;;
53267;SDS011;39156;51.176;6.738;2023-09-19T00:38:22;39.58;;;37.10;;
53267;SDS011;39156;51.176;6.738;2023-09-19T00:40:52;39.30;;;36.40;;
53267;SDS011;39156;51.176;6.738;2023-09-19T00:43:19;39.92;;;37.25;;
53267;SDS011;39156;51.176;6.738;2023-09-19T00:45:47;36.80;;;34.30;;
53267;SDS011;39156;51.176;6.738;2023-09-19T00:48:16;40.20;;;37.72;;
53267;SDS011;39156;51.176;6.738;2023-09-19T00:50:43;38.20;;;35.95;;
53267;SDS011;39156;51.176;6.738;2023-09-19T00:53:13;37.72;;;35.22;;
53267;SDS011;39156;51.176;6.738;2023-09-19T00:55:46;39.17;;;36.67;;
53267;SDS011;39156;51.176;6.738;2023-09-19T00:58:13;39.10;;;36.70;;
53267;SDS011;39156;51.176;6.738;2023-09-19T01:00:39;36.13;;;34.03;;
53267;SDS011;39156;51.176;6.738;2023-09-19T01:03:05;38.15;;;35.83;;
53267;SDS011;39156;51.176;6.738;2023-09-19T01:05:31;38.10;;;35.80;;
53267;SDS011;39156;51.176;6.738;2023-09-19T01:07:59;39.22;;;36.72;;
53267;SDS011;39156;51.176;6.738;2023-09-19T01:10:25;38.50;;;36.10;;
53267;SDS011;39156;51.176;6.738;2023-09-19T01:13:05;38.83;;;36.57;;
53267;SDS011;39156;51.176;6.738;2023-09-19T01:15:47;37.72;;;34.92;;
53267;SDS011;39156;51.176;6.738;2023-09-19T01:18:52;38.05;;;35.65;;
53267;SDS011;39156;51.176;6.738;2023-09-19T01:21:59;38.38;;;35.95;;
53267;SDS011;39156;51.176;6.738;2023-09-19T01:27:58;39.90;;;37.20;;
53267;SDS011;39156;51.176;6.738;2023-09-19T01:30:35;38.78;;;36.38;;
53267;SDS011;39156;51.176;6.738;2023-09-19T01:33:08;37.72;;;35.53;;
53267;SDS011;39156;51.176;6.738;2023-09-19T01:35:37;39.85;;;37.10;;
53267;SDS011;39156;51.176;6.738;2023-09-19T01:38:04;37.03;;;34.75;;
53267;SDS011;39156;51.176;6.738;2023-09-19T01:40:39;36.72;;;34.13;;
53267;SDS011;39156;51.176;6.738;2023-09-19T01:43:10;38.03;;;35.63;;
53267;SDS011;39156;51.176;6.738;2023-09-19T01:46:04;39.33;;;36.40;;
53267;SDS011;39156;51.176;6.738;2023-09-19T01:52:04;37.35;;;35.08;;
53267;SDS011;39156;51.176;6.738;2023-09-19T01:54:51;37.15;;;34.83;;
53267;SDS011;39156;51.176;6.738;2023-09-19T02:00:06;39.25;;;36.65;;
53267;SDS011;39156;51.176;6.738;2023-09-19T02:02:37;38.30;;;36.08;;
53267;SDS011;39156;51.176;6.738;2023-09-19T02:05:05;39.15;;;36.47;;
53267;SDS011;39156;51.176;6.738;2023-09-19T02:07:31;38.58;;;36.13;;
53267;SDS011;39156;51.176;6.738;2023-09-19T02:09:57;40.03;;;37.33;;
53267;SDS011;39156;51.176;6.738;2023-09-19T02:12:28;39.45;;;36.97;;
53267;SDS011;39156;51.176;6.738;2023-09-19T02:14:55;38.40;;;36.20;;
53267;SDS011;39156;51.176;6.738;2023-09-19T02:17:22;38.70;;;35.92;;
53267;SDS011;39156;51.176;6.738;2023-09-19T02:19:51;36.95;;;34.65;;
53267;SDS011;39156;51.176;6.738;2023-09-19T02:22:20;36.88;;;34.47;;
53267;SDS011;39156;51.176;6.738;2023-09-19T02:24:49;38.40;;;35.78;;
53267;SDS011;39156;51.176;6.738;2023-09-19T02:27:15;38.30;;;35.75;;
53267;SDS011;39156;51.176;6.738;2023-09-19T02:29:42;38.85;;;36.45;;
53267;SDS011;39156;51.176;6.738;2023-09-19T02:32:08;40.03;;;37.60;;
53267;SDS011;39156;51.176;6.738;2023-09-19T02:34:37;39.33;;;36.60;;
53267;SDS011;39156;51.176;6.738;2023-09-19T02:39:33;36.53;;;34.38;;
53267;SDS011;39156;51.176;6.738;2023-09-19T02:42:00;37.53;;;35.20;;
53267;SDS011;39156;51.176;6.738;2023-09-19T02:44:25;37.87;;;35.40;;
53267;SDS011;39156;51.176;6.738;2023-09-19T02:46:52;38.13;;;35.72;;
53267;SDS011;39156;51.176;6.738;2023-09-19T02:49:18;36.53;;;34.30;;
53267;SDS011;39156;51.176;6.738;2023-09-19T02:51:44;37.13;;;34.87;;
53267;SDS011;39156;51.176;6.738;2023-09-19T02:54:10;37.60;;;35.25;;
53267;SDS011;39156;51.176;6.738;2023-09-19T02:56:36;38.17;;;35.70;;
53267;SDS011;39156;51.176;6.738;2023-09-19T02:59:02;39.40;;;36.75;;
53267;SDS011;39156;51.176;6.738;2023-09-19T03:01:28;40.67;;;38.27;;
53267;SDS011;39156;51.176;6.738;2023-09-19T03:03:54;38.53;;;36.00;;
53267;SDS011;39156;51.176;6.738;2023-09-19T03:06:20;38.78;;;36.35;;
53267;SDS011;39156;51.176;6.738;2023-09-19T03:08:47;40.20;;;37.63;;
53267;SDS011;39156;51.176;6.738;2023-09-19T03:11:14;39.28;;;36.88;;
53267;SDS011;39156;51.176;6.738;2023-09-19T03:13:43;40.22;;;37.72;;
53267;SDS011;39156;51.176;6.738;2023-09-19T03:16:10;39.45;;;36.97;;
53267;SDS011;39156;51.176;6.738;2023-09-19T03:18:36;39.00;;;36.20;;
53267;SDS011;39156;51.176;6.738;2023-09-19T03:21:02;39.05;;;36.55;;
53267;SDS011;39156;51.176;6.738;2023-09-19T03:23:29;41.38;;;38.97;;
53267;SDS011;39156;51.176;6.738;2023-09-19T03:25:55;40.22;;;37.45;;
53267;SDS011;39156;51.176;6.738;2023-09-19T03:28:21;37.83;;;35.60;;
53267;SDS011;39156;51.176;6.738;2023-09-19T03:31:04;39.15;;;36.67;;
53267;SDS011;39156;51.176;6.738;2023-09-19T03:33:31;37.67;;;35.35;;
53267;SDS011;39156;51.176;6.738;2023-09-19T03:35:58;38.63;;;36.15;;
53267;SDS011;39156;51.176;6.738;2023-09-19T03:38:31;39.40;;;36.58;;
53267;SDS011;39156;51.176;6.738;2023-09-19T03:40:57;37.60;;;35.17;;
53267;SDS011;39156;51.176;6.738;2023-09-19T03:43:24;40.83;;;38.15;;
53267;SDS011;39156;51.176;6.738;2023-09-19T03:45:49;38.72;;;35.92;;
53267;SDS011;39156;51.176;6.738;2023-09-19T03:48:16;37.40;;;35.00;;
53267;SDS011;39156;51.176;6.738;2023-09-19T03:50:42;39.47;;;36.97;;
53267;SDS011;39156;51.176;6.738;2023-09-19T03:53:09;38.63;;;36.20;;
53267;SDS011;39156;51.176;6.738;2023-09-19T03:55:35;38.47;;;36.33;;
53267;SDS011;39156;51.176;6.738;2023-09-19T03:58:03;38.37;;;35.83;;
53267;SDS011;39156;51.176;6.738;2023-09-19T04:00:29;38.70;;;36.13;;
53267;SDS011;39156;51.176;6.738;2023-09-19T04:02:55;38.90;;;36.30;;
53267;SDS011;39156;51.176;6.738;2023-09-19T04:05:21;40.22;;;37.42;;
53267;SDS011;39156;51.176;6.738;2023-09-19T04:07:48;39.70;;;37.13;;
53267;SDS011;39156;51.176;6.738;2023-09-19T04:10:15;36.30;;;34.00;;
53267;SDS011;39156;51.176;6.738;2023-09-19T04:12:41;37.17;;;34.77;;
53267;SDS011;39156;51.176;6.738;2023-09-19T04:15:19;38.10;;;35.83;;
53267;SDS011;39156;51.176;6.738;2023-09-19T04:17:47;38.53;;;36.05;;
53267;SDS011;39156;51.176;6.738;2023-09-19T04:20:13;37.80;;;35.30;;
53267;SDS011;39156;51.176;6.738;2023-09-19T04:22:39;38.15;;;35.90;;
53267;SDS011;39156;51.176;6.738;2023-09-19T04:25:05;38.87;;;36.43;;
53267;SDS011;39156;51.176;6.738;2023-09-19T04:27:32;38.00;;;35.60;;
53267;SDS011;39156;51.176;6.738;2023-09-19T04:29:58;40.83;;;38.42;;
53267;SDS011;39156;51.176;6.738;2023-09-19T04:32:24;38.23;;;35.83;;
53267;SDS011;39156;51.176;6.738;2023-09-19T04:34:53;38.70;;;35.90;;
53267;SDS011;39156;51.176;6.738;2023-09-19T04:37:19;39.42;;;37.00;;
53267;SDS011;39156;51.176;6.738;2023-09-19T04:39:46;41.08;;;37.65;;
53267;SDS011;39156;51.176;6.738;2023-09-19T04:42:15;39.28;;;36.78;;
53267;SDS011;39156;51.176;6.738;2023-09-19T04:44:40;39.50;;;37.20;;
53267;SDS011;39156;51.176;6.738;2023-09-19T04:47:07;40.78;;;37.75;;
53267;SDS011;39156;51.176;6.738;2023-09-19T04:49:33;38.60;;;36.13;;
53267;SDS011;39156;51.176;6.738;2023-09-19T04:52:00;40.22;;;37.20;;
53267;SDS011;39156;51.176;6.738;2023-09-19T04:54:25;41.15;;;38.65;;
53267;SDS011;39156;51.176;6.738;2023-09-19T04:56:52;38.28;;;35.78;;
53267;SDS011;39156;51.176;6.738;2023-09-19T04:59:17;38.80;;;36.40;;
53267;SDS011;39156;51.176;6.738;2023-09-19T05:01:43;37.85;;;35.45;;
53267;SDS011;39156;51.176;6.738;2023-09-19T05:04:09;41.08;;;38.40;;
53267;SDS011;39156;51.176;6.738;2023-09-19T05:06:34;40.97;;;37.80;;
53267;SDS011;39156;51.176;6.738;2023-09-19T05:09:00;40.97;;;37.90;;
53267;SDS011;39156;51.176;6.738;2023-09-19T05:11:26;38.73;;;36.20;;
53267;SDS011;39156;51.176;6.738;2023-09-19T05:13:55;39.65;;;36.97;;
53267;SDS011;39156;51.176;6.738;2023-09-19T05:16:20;38.83;;;36.17;;
53267;SDS011;39156;51.176;6.738;2023-09-19T05:18:46;38.67;;;35.93;;
53267;SDS011;39156;51.176;6.738;2023-09-19T05:21:12;38.38;;;36.08;;
53267;SDS011;39156;51.176;6.738;2023-09-19T05:23:38;37.95;;;35.58;;
53267;SDS011;39156;51.176;6.738;2023-09-19T05:26:04;38.75;;;36.13;;
53267;SDS011;39156;51.176;6.738;2023-09-19T05:28:30;39.58;;;36.70;;
53267;SDS011;39156;51.176;6.738;2023-09-19T05:30:57;39.90;;;37.47;;
53267;SDS011;39156;51.176;6.738;2023-09-19T05:33:27;38.08;;;35.50;;
53267;SDS011;39156;51.176;6.738;2023-09-19T05:35:53;39.87;;;37.00;;
53267;SDS011;39156;51.176;6.738;2023-09-19T05:38:18;40.50;;;37.97;;
53267;SDS011;39156;51.176;6.738;2023-09-19T05:40:45;37.03;;;34.63;;
53267;SDS011;39156;51.176;6.738;2023-09-19T05:43:11;36.92;;;34.47;;
53267;SDS011;39156;51.176;6.738;2023-09-19T05:45:39;39.50;;;36.70;;
53267;SDS011;39156;51.176;6.738;2023-09-19T05:48:09;39.55;;;36.85;;
53267;SDS011;39156;51.176;6.738;2023-09-19T05:50:40;37.92;;;35.17;;
53267;SDS011;39156;51.176;6.738;2023-09-19T05:53:07;37.15;;;34.75;;
53267;SDS011;39156;51.176;6.738;2023-09-19T05:55:39;37.13;;;34.70;;
53267;SDS011;39156;51.176;6.738;2023-09-19T05:58:05;37.08;;;34.50;;
53267;SDS011;39156;51.176;6.738;2023-09-19T06:00:31;37.67;;;35.20;;
53267;SDS011;39156;51.176;6.738;2023-09-19T06:02:57;37.55;;;34.97;;
53267;SDS011;39156;51.176;6.738;2023-09-19T06:05:25;39.17;;;36.08;;
53267;SDS011;39156;51.176;6.738;2023-09-19T06:07:51;38.28;;;35.15;;
53267;SDS011;39156;51.176;6.738;2023-09-19T06:10:18;36.40;;;33.97;;
53267;SDS011;39156;51.176;6.738;2023-09-19T06:12:45;38.72;;;36.35;;
53267;SDS011;39156;51.176;6.738;2023-09-19T06:15:13;37.05;;;34.72;;
53267;SDS011;39156;51.176;6.738;2023-09-19T06:17:49;39.38;;;36.97;;
53267;SDS011;39156;51.176;6.738;2023-09-19T06:20:20;40.22;;;37.50;;
53267;SDS011;39156;51.176;6.738;2023-09-19T06:22:47;37.97;;;35.47;;
53267;SDS011;39156;51.176;6.738;2023-09-19T06:25:13;37.73;;;35.10;;
53267;SDS011;39156;51.176;6.738;2023-09-19T06:27:44;38.10;;;35.70;;
53267;SDS011;39156;51.176;6.738;2023-09-19T06:30:16;36.47;;;34.13;;
53267;SDS011;39156;51.176;6.738;2023-09-19T06:32:42;37.95;;;35.33;;
53267;SDS011;39156;51.176;6.738;2023-09-19T06:35:12;37.50;;;35.17;;
53267;SDS011;39156;51.176;6.738;2023-09-19T06:37:39;38.88;;;36.58;;
53267;SDS011;39156;51.176;6.738;2023-09-19T06:42:42;38.17;;;35.88;;
53267;SDS011;39156;51.176;6.738;2023-09-19T06:45:10;38.20;;;35.67;;
53267;SDS011;39156;51.176;6.738;2023-09-19T06:47:42;37.40;;;35.00;;
53267;SDS011;39156;51.176;6.738;2023-09-19T06:50:09;38.63;;;36.00;;
53267;SDS011;39156;51.176;6.738;2023-09-19T06:52:38;38.80;;;36.13;;
53267;SDS011;39156;51.176;6.738;2023-09-19T06:55:06;36.35;;;33.95;;
53267;SDS011;39156;51.176;6.738;2023-09-19T06:57:32;38.63;;;35.87;;
53267;SDS011;39156;51.176;6.738;2023-09-19T06:59:57;36.70;;;34.23;;
53267;SDS011;39156;51.176;6.738;2023-09-19T07:02:23;35.70;;;33.40;;
53267;SDS011;39156;51.176;6.738;2023-09-19T07:04:49;35.37;;;33.17;;
53267;SDS011;39156;51.176;6.738;2023-09-19T07:07:15;36.67;;;34.07;;
53267;SDS011;39156;51.176;6.738;2023-09-19T07:09:41;38.65;;;35.75;;
53267;SDS011;39156;51.176;6.738;2023-09-19T07:12:07;38.57;;;35.80;;
53267;SDS011;39156;51.176;6.738;2023-09-19T07:14:33;37.67;;;35.30;;
53267;SDS011;39156;51.176;6.738;2023-09-19T07:16:58;37.73;;;35.50;;
53267;SDS011;39156;51.176;6.738;2023-09-19T07:19:28;36.88;;;34.53;;
53267;SDS011;39156;51.176;6.738;2023-09-19T07:21:56;36.10;;;34.00;;
53267;SDS011;39156;51.176;6.738;2023-09-19T07:24:24;36.28;;;33.88;;
53267;SDS011;39156;51.176;6.738;2023-09-19T07:26:53;36.28;;;34.08;;
53267;SDS011;39156;51.176;6.738;2023-09-19T07:29:19;36.47;;;34.07;;
53267;SDS011;39156;51.176;6.738;2023-09-19T07:31:45;34.97;;;32.73;;
53267;SDS011;39156;51.176;6.738;2023-09-19T07:34:12;35.72;;;33.33;;
53267;SDS011;39156;51.176;6.738;2023-09-19T07:39:05;36.28;;;34.08;;
53267;SDS011;39156;51.176;6.738;2023-09-19T07:41:32;34.28;;;31.98;;
53267;SDS011;39156;51.176;6.738;2023-09-19T07:43:58;34.85;;;32.55;;
53267;SDS011;39156;51.176;6.738;2023-09-19T07:46:24;34.43;;;32.07;;
53267;SDS011;39156;51.176;6.738;2023-09-19T07:48:50;34.67;;;32.17;;
53267;SDS011;39156;51.176;6.738;2023-09-19T07:51:17;34.15;;;31.98;;
53267;SDS011;39156;51.176;6.738;2023-09-19T07:53:42;36.35;;;33.47;;
53267;SDS011;39156;51.176;6.738;2023-09-19T07:56:09;33.83;;;31.30;;
53267;SDS011;39156;51.176;6.738;2023-09-19T07:58:35;34.03;;;31.83;;
53267;SDS011;39156;51.176;6.738;2023-09-19T08:01:06;33.53;;;31.30;;
53267;SDS011;39156;51.176;6.738;2023-09-19T08:03:35;32.95;;;30.95;;
53267;SDS011;39156;51.176;6.738;2023-09-19T08:06:09;33.53;;;31.02;;
53267;SDS011;39156;51.176;6.738;2023-09-19T08:08:35;32.55;;;30.52;;
53267;SDS011;39156;51.176;6.738;2023-09-19T08:11:02;33.03;;;30.80;;
53267;SDS011;39156;51.176;6.738;2023-09-19T08:13:46;33.58;;;31.38;;
53267;SDS011;39156;51.176;6.738;2023-09-19T08:16:13;33.78;;;31.48;;
53267;SDS011;39156;51.176;6.738;2023-09-19T08:18:47;33.42;;;31.23;;
53267;SDS011;39156;51.176;6.738;2023-09-19T08:23:39;32.80;;;30.70;;
53267;SDS011;39156;51.176;6.738;2023-09-19T08:26:05;32.83;;;30.73;;
53267;SDS011;39156;51.176;6.738;2023-09-19T08:28:36;32.35;;;30.35;;
53267;SDS011;39156;51.176;6.738;2023-09-19T08:31:05;32.75;;;30.75;;
53267;SDS011;39156;51.176;6.738;2023-09-19T08:33:36;32.67;;;30.58;;
53267;SDS011;39156;51.176;6.738;2023-09-19T08:36:03;33.72;;;31.25;;
53267;SDS011;39156;51.176;6.738;2023-09-19T08:38:33;33.25;;;30.73;;
53267;SDS011;39156;51.176;6.738;2023-09-19T08:41:00;33.22;;;31.20;;
53267;SDS011;39156;51.176;6.738;2023-09-19T08:43:30;32.72;;;30.52;;
53267;SDS011;39156;51.176;6.738;2023-09-19T08:46:03;32.80;;;30.77;;
53267;SDS011;39156;51.176;6.738;2023-09-19T08:48:30;32.45;;;30.20;;
53267;SDS011;39156;51.176;6.738;2023-09-19T08:51:03;32.67;;;30.63;;
53267;SDS011;39156;51.176;6.738;2023-09-19T08:53:42;32.42;;;30.42;;
53267;SDS011;39156;51.176;6.738;2023-09-19T08:56:19;32.53;;;30.63;;
53267;SDS011;39156;51.176;6.738;2023-09-19T08:58:51;33.38;;;31.25;;
53267;SDS011;39156;51.176;6.738;2023-09-19T09:01:27;32.65;;;30.55;;
53267;SDS011;39156;51.176;6.738;2023-09-19T09:03:54;32.55;;;30.38;;
53267;SDS011;39156;51.176;6.738;2023-09-19T09:06:21;32.72;;;30.52;;
53267;SDS011;39156;51.176;6.738;2023-09-19T09:08:52;31.92;;;29.85;;
53267;SDS011;39156;51.176;6.738;2023-09-19T09:11:18;32.92;;;30.30;;
53267;SDS011;39156;51.176;6.738;2023-09-19T09:13:46;31.23;;;29.38;;
53267;SDS011;39156;51.176;6.738;2023-09-19T09:16:13;32.42;;;30.25;;
53267;SDS011;39156;51.176;6.738;2023-09-19T09:18:43;31.83;;;29.73;;
53267;SDS011;39156;51.176;6.738;2023-09-19T09:21:10;32.67;;;30.52;;
53267;SDS011;39156;51.176;6.738;2023-09-19T09:23:38;31.95;;;30.02;;
53267;SDS011;39156;51.176;6.738;2023-09-19T09:26:04;31.42;;;29.33;;
53267;SDS011;39156;51.176;6.738;2023-09-19T09:28:32;31.67;;;29.55;;
53267;SDS011;39156;51.176;6.738;2023-09-19T09:31:00;32.85;;;30.85;;
53267;SDS011;39156;51.176;6.738;2023-09-19T09:33:33;31.48;;;29.50;;
53267;SDS011;39156;51.176;6.738;2023-09-19T09:36:00;31.30;;;29.30;;
53267;SDS011;39156;51.176;6.738;2023-09-19T09:38:29;31.10;;;29.33;;
53267;SDS011;39156;51.176;6.738;2023-09-19T09:41:09;31.52;;;29.40;;
53267;SDS011;39156;51.176;6.738;2023-09-19T09:43:35;31.73;;;29.73;;
53267;SDS011;39156;51.176;6.738;2023-09-19T09:48:47;32.22;;;30.13;;
53267;SDS011;39156;51.176;6.738;2023-09-19T09:51:40;32.35;;;30.23;;
53267;SDS011;39156;51.176;6.738;2023-09-19T09:54:17;32.55;;;30.63;;
53267;SDS011;39156;51.176;6.738;2023-09-19T09:56:56;33.10;;;31.05;;
53267;SDS011;39156;51.176;6.738;2023-09-19T10:02:26;32.88;;;31.08;;
53267;SDS011;39156;51.176;6.738;2023-09-19T10:07:53;32.90;;;30.60;;
53267;SDS011;39156;51.176;6.738;2023-09-19T10:10:34;33.33;;;31.40;;
53267;SDS011;39156;51.176;6.738;2023-09-19T10:13:08;32.45;;;30.30;;
53267;SDS011;39156;51.176;6.738;2023-09-19T10:15:37;32.25;;;30.30;;
53267;SDS011;39156;51.176;6.738;2023-09-19T10:18:06;32.85;;;30.85;;
53267;SDS011;39156;51.176;6.738;2023-09-19T10:20:35;33.00;;;30.92;;
53267;SDS011;39156;51.176;6.738;2023-09-19T10:23:07;32.22;;;30.35;;
53267;SDS011;39156;51.176;6.738;2023-09-19T10:25:38;32.65;;;30.75;;
53267;SDS011;39156;51.176;6.738;2023-09-19T10:28:11;33.22;;;31.00;;
53267;SDS011;39156;51.176;6.738;2023-09-19T10:30:48;33.15;;;31.15;;
53267;SDS011;39156;51.176;6.738;2023-09-19T10:33:17;33.75;;;31.40;;
53267;SDS011;39156;51.176;6.738;2023-09-19T10:35:48;32.25;;;30.52;;
53267;SDS011;39156;51.176;6.738;2023-09-19T10:38:22;33.15;;;31.17;;
53267;SDS011;39156;51.176;6.738;2023-09-19T10:40:51;32.85;;;30.95;;
53267;SDS011;39156;51.176;6.738;2023-09-19T10:43:31;33.05;;;31.05;;
53267;SDS011;39156;51.176;6.738;2023-09-19T10:46:02;33.33;;;31.23;;
53267;SDS011;39156;51.176;6.738;2023-09-19T10:48:32;34.08;;;31.88;;
53267;SDS011;39156;51.176;6.738;2023-09-19T10:51:01;34.50;;;32.10;;
53267;SDS011;39156;51.176;6.738;2023-09-19T10:53:57;34.03;;;31.75;;
53267;SDS011;39156;51.176;6.738;2023-09-19T10:56:36;33.42;;;31.45;;
53267;SDS011;39156;51.176;6.738;2023-09-19T10:59:06;34.17;;;32.08;;
53267;SDS011;39156;51.176;6.738;2023-09-19T11:01:51;33.80;;;31.80;;
53267;SDS011;39156;51.176;6.738;2023-09-19T11:07:02;34.10;;;32.10;;
53267;SDS011;39156;51.176;6.738;2023-09-19T11:09:52;34.35;;;31.88;;
53267;SDS011;39156;51.176;6.738;2023-09-19T11:14:54;33.80;;;31.73;;
53267;SDS011;39156;51.176;6.738;2023-09-19T11:30:33;34.58;;;32.55;;
53267;SDS011;39156;51.176;6.738;2023-09-19T11:33:15;34.45;;;32.25;;
53267;SDS011;39156;51.176;6.738;2023-09-19T11:36:08;34.70;;;32.70;;
53267;SDS011;39156;51.176;6.738;2023-09-19T11:49:18;34.45;;;32.35;;
53267;SDS011;39156;51.176;6.738;2023-09-19T11:51:54;33.90;;;31.95;;
53267;SDS011;39156;51.176;6.738;2023-09-19T11:54:22;34.53;;;32.50;;
53267;SDS011;39156;51.176;6.738;2023-09-19T11:56:50;35.22;;;33.03;;
53267;SDS011;39156;51.176;6.738;2023-09-19T11:59:20;33.55;;;31.65;;
53267;SDS011;39156;51.176;6.738;2023-09-19T12:01:50;34.90;;;32.65;;
53267;SDS011;39156;51.176;6.738;2023-09-19T12:04:33;34.73;;;32.73;;
53267;SDS011;39156;51.176;6.738;2023-09-19T12:07:09;35.20;;;33.10;;
53267;SDS011;39156;51.176;6.738;2023-09-19T12:09:40;34.85;;;32.63;;
53267;SDS011;39156;51.176;6.738;2023-09-19T12:12:25;34.88;;;32.78;;
53267;SDS011;39156;51.176;6.738;2023-09-19T12:14:52;34.55;;;32.47;;
53267;SDS011;39156;51.176;6.738;2023-09-19T12:17:19;33.78;;;31.77;;
53267;SDS011;39156;51.176;6.738;2023-09-19T12:19:56;35.13;;;32.70;;
53267;SDS011;39156;51.176;6.738;2023-09-19T12:22:21;33.90;;;31.77;;
53267;SDS011;39156;51.176;6.738;2023-09-19T12:24:47;34.63;;;32.63;;
53267;SDS011;39156;51.176;6.738;2023-09-19T12:27:15;35.10;;;33.10;;
53267;SDS011;39156;51.176;6.738;2023-09-19T12:29:42;33.75;;;31.85;;
53267;SDS011;39156;51.176;6.738;2023-09-19T12:32:19;34.65;;;32.67;;
53267;SDS011;39156;51.176;6.738;2023-09-19T12:34:59;36.08;;;33.72;;
53267;SDS011;39156;51.176;6.738;2023-09-19T12:37:32;37.05;;;34.67;;
53267;SDS011;39156;51.176;6.738;2023-09-19T12:40:07;33.63;;;31.73;;
53267;SDS011;39156;51.176;6.738;2023-09-19T12:42:42;34.92;;;32.92;;
53267;SDS011;39156;51.176;6.738;2023-09-19T12:45:09;33.55;;;31.75;;
53267;SDS011;39156;51.176;6.738;2023-09-19T12:47:38;34.03;;;32.00;;
53267;SDS011;39156;51.176;6.738;2023-09-19T12:50:12;33.70;;;31.60;;
53267;SDS011;39156;51.176;6.738;2023-09-19T12:55:22;35.35;;;33.28;;
53267;SDS011;39156;51.176;6.738;2023-09-19T13:00:32;31.67;;;29.63;;
53267;SDS011;39156;51.176;6.738;2023-09-19T13:03:12;32.13;;;30.20;;
53267;SDS011;39156;51.176;6.738;2023-09-19T13:05:53;32.40;;;30.67;;
53267;SDS011;39156;51.176;6.738;2023-09-19T13:11:13;33.90;;;32.00;;
53267;SDS011;39156;51.176;6.738;2023-09-19T13:16:33;33.42;;;31.52;;
53267;SDS011;39156;51.176;6.738;2023-09-19T13:18:58;33.00;;;31.07;;
53267;SDS011;39156;51.176;6.738;2023-09-19T13:21:28;33.90;;;31.90;;
53267;SDS011;39156;51.176;6.738;2023-09-19T13:24:18;33.22;;;31.25;;
53267;SDS011;39156;51.176;6.738;2023-09-19T13:26:46;34.63;;;32.72;;
53267;SDS011;39156;51.176;6.738;2023-09-19T13:29:12;32.67;;;30.63;;
53267;SDS011;39156;51.176;6.738;2023-09-19T13:31:39;32.90;;;31.00;;
53267;SDS011;39156;51.176;6.738;2023-09-19T13:34:06;32.63;;;30.73;;
53267;SDS011;39156;51.176;6.738;2023-09-19T13:36:32;33.13;;;31.13;;
53267;SDS011;39156;51.176;6.738;2023-09-19T13:38:58;33.15;;;31.27;;
53267;SDS011;39156;51.176;6.738;2023-09-19T13:41:26;33.20;;;31.30;;
53267;SDS011;39156;51.176;6.738;2023-09-19T13:43:51;32.03;;;30.17;;
53267;SDS011;39156;51.176;6.738;2023-09-19T13:48:50;32.22;;;30.33;;
53267;SDS011;39156;51.176;6.738;2023-09-19T13:51:19;33.28;;;31.48;;
53267;SDS011;39156;51.176;6.738;2023-09-19T13:53:48;32.90;;;31.10;;
53267;SDS011;39156;51.176;6.738;2023-09-19T13:56:15;34.47;;;32.20;;
53267;SDS011;39156;51.176;6.738;2023-09-19T13:58:41;34.25;;;32.30;;
53267;SDS011;39156;51.176;6.738;2023-09-19T14:01:07;33.03;;;31.23;;
53267;SDS011;39156;51.176;6.738;2023-09-19T14:03:37;32.50;;;30.70;;
53267;SDS011;39156;51.176;6.738;2023-09-19T14:06:11;32.92;;;31.17;;
53267;SDS011;39156;51.176;6.738;2023-09-19T14:08:37;33.45;;;31.55;;
53267;SDS011;39156;51.176;6.738;2023-09-19T14:11:06;32.97;;;31.17;;
53267;SDS011;39156;51.176;6.738;2023-09-19T14:13:33;33.42;;;31.52;;
53267;SDS011;39156;51.176;6.738;2023-09-19T14:16:05;32.17;;;30.27;;
53267;SDS011;39156;51.176;6.738;2023-09-19T14:18:36;32.38;;;30.65;;
53267;SDS011;39156;51.176;6.738;2023-09-19T14:21:03;32.73;;;30.93;;
53267;SDS011;39156;51.176;6.738;2023-09-19T14:23:34;33.15;;;31.35;;
53267;SDS011;39156;51.176;6.738;2023-09-19T14:26:01;33.92;;;32.13;;
53267;SDS011;39156;51.176;6.738;2023-09-19T14:28:27;33.28;;;31.38;;
53267;SDS011;39156;51.176;6.738;2023-09-19T14:30:54;33.10;;;31.30;;
53267;SDS011;39156;51.176;6.738;2023-09-19T14:33:20;32.25;;;30.48;;
53267;SDS011;39156;51.176;6.738;2023-09-19T14:35:46;32.22;;;30.48;;
53267;SDS011;39156;51.176;6.738;2023-09-19T14:38:12;32.53;;;30.83;;
53267;SDS011;39156;51.176;6.738;2023-09-19T14:40:39;31.88;;;30.17;;
53267;SDS011;39156;51.176;6.738;2023-09-19T14:43:05;32.00;;;30.30;;
53267;SDS011;39156;51.176;6.738;2023-09-19T14:45:35;33.08;;;31.15;;
53267;SDS011;39156;51.176;6.738;2023-09-19T14:48:01;32.13;;;30.08;;
53267;SDS011;39156;51.176;6.738;2023-09-19T14:50:30;33.60;;;31.70;;
53267;SDS011;39156;51.176;6.738;2023-09-19T14:52:56;33.30;;;31.50;;
53267;SDS011;39156;51.176;6.738;2023-09-19T14:55:23;32.15;;;30.45;;
53267;SDS011;39156;51.176;6.738;2023-09-19T14:57:49;34.10;;;32.20;;
53267;SDS011;39156;51.176;6.738;2023-09-19T15:00:16;33.80;;;32.00;;
53267;SDS011;39156;51.176;6.738;2023-09-19T15:02:45;32.45;;;30.75;;
53267;SDS011;39156;51.176;6.738;2023-09-19T15:05:13;33.58;;;31.27;;
53267;SDS011;39156;51.176;6.738;2023-09-19T15:07:40;33.50;;;31.70;;
53267;SDS011;39156;51.176;6.738;2023-09-19T15:10:06;32.60;;;30.67;;
53267;SDS011;39156;51.176;6.738;2023-09-19T15:12:34;34.35;;;32.55;;
53267;SDS011;39156;51.176;6.738;2023-09-19T15:15:04;32.80;;;31.10;;
53267;SDS011;39156;51.176;6.738;2023-09-19T15:17:33;34.55;;;32.65;;
53267;SDS011;39156;51.176;6.738;2023-09-19T15:20:00;34.80;;;32.90;;
53267;SDS011;39156;51.176;6.738;2023-09-19T15:22:31;33.92;;;32.13;;
53267;SDS011;39156;51.176;6.738;2023-09-19T15:24:59;33.45;;;31.67;;
53267;SDS011;39156;51.176;6.738;2023-09-19T15:27:27;33.95;;;32.15;;
53267;SDS011;39156;51.176;6.738;2023-09-19T15:29:55;35.08;;;33.13;;
53267;SDS011;39156;51.176;6.738;2023-09-19T15:32:23;34.47;;;32.58;;
53267;SDS011;39156;51.176;6.738;2023-09-19T15:34:49;33.28;;;31.42;;
53267;SDS011;39156;51.176;6.738;2023-09-19T15:37:15;32.08;;;30.27;;
53267;SDS011;39156;51.176;6.738;2023-09-19T15:39:41;33.20;;;31.30;;
53267;SDS011;39156;51.176;6.738;2023-09-19T15:42:07;34.45;;;32.60;;
53267;SDS011;39156;51.176;6.738;2023-09-19T15:44:33;31.90;;;30.10;;